Terminal Aerodrome Forecast
Issued by NWS Tulsa, OK

Home | Current Version | Previous Version | Text Only | Print | Product List | Glossary On
Versions: 1 2 3 4 5 6 7 8 9 10 11 12 13 14 15 16 17 18 19 20
000
FTUS44 KTSA 251642 AAE
TAFFSM
TAF AMD
KFSM 251642Z 2517/2612 09012KT P6SM SCT045 OVC060
     FM252000 20012KT P6SM BKN250
     FM260300 09005KT P6SM BKN100
     FM260900 09005KT P6SM BKN025=

USA.gov is the U.S. government's official web portal to all federal, state and local government web resources and services.